createdAt,value
2017-07-02T00:00:07.802Z,6.22
2017-07-02T00:02:36.649Z,6.57
2017-07-02T00:05:06.296Z,6.32
2017-07-02T00:07:35.186Z,6.05
2017-07-02T00:10:04.064Z,6.43
2017-07-02T00:12:32.948Z,6.25
2017-07-02T00:15:01.835Z,6.20
2017-07-02T00:17:30.711Z,6.62
2017-07-02T00:20:00.351Z,6.18
2017-07-02T00:22:29.233Z,6.80
2017-07-02T00:24:58.107Z,6.78
2017-07-02T00:27:27.741Z,7.15
2017-07-02T00:29:56.616Z,6.70
2017-07-02T00:32:25.507Z,7.47
2017-07-02T00:34:54.379Z,8.10
2017-07-02T00:37:23.262Z,7.25
2017-07-02T00:39:52.147Z,8.45
2017-07-02T00:42:20.989Z,7.60
2017-07-02T00:44:49.872Z,8.50
2017-07-02T00:47:18.758Z,9.23
2017-07-02T00:49:47.660Z,8.60
2017-07-02T00:52:16.558Z,9.68
2017-07-02T00:54:45.459Z,9.40
2017-07-02T00:59:52.381Z,10.15
2017-07-02T01:02:21.288Z,10.85
2017-07-02T01:04:50.190Z,10.38
2017-07-02T01:07:19.072Z,9.25
2017-07-02T01:09:47.960Z,9.65
2017-07-02T01:12:16.839Z,8.80
2017-07-02T01:14:45.739Z,9.25
2017-07-02T01:17:14.627Z,9.38
2017-07-02T01:19:43.515Z,9.77
2017-07-02T01:22:12.407Z,10.27
2017-07-02T01:24:41.309Z,11.73
2017-07-02T01:27:10.209Z,11.35
2017-07-02T01:29:39.109Z,12.63
2017-07-02T01:32:08.807Z,13.70
2017-07-02T01:34:37.700Z,14.00
2017-07-02T01:37:06.591Z,13.93
2017-07-02T01:39:35.527Z,14.40
2017-07-02T01:42:05.084Z,15.30
2017-07-02T01:44:33.968Z,18.00
2017-07-02T01:47:02.867Z,20.77
2017-07-02T01:49:31.770Z,20.48
2017-07-02T01:52:00.669Z,21.42
2017-07-02T01:54:30.328Z,19.23
2017-07-02T01:56:58.531Z,21.30
2017-07-02T01:59:27.424Z,21.00
2017-07-02T02:02:07.558Z,20.40
2017-07-02T02:04:36.444Z,20.35
2017-07-02T02:07:05.339Z,22.13
2017-07-02T02:09:35.009Z,19.80
2017-07-02T02:12:04.681Z,22.45
2017-07-02T02:14:33.590Z,18.83
2017-07-02T02:17:02.497Z,20.37
2017-07-02T02:19:32.162Z,18.12
2017-07-02T02:22:01.064Z,20.85
2017-07-02T02:24:29.956Z,19.05
2017-07-02T02:26:58.850Z,19.25
2017-07-02T02:29:27.740Z,19.02
2017-07-02T02:31:56.698Z,18.33
2017-07-02T02:34:25.587Z,18.62
2017-07-02T02:36:54.480Z,19.75
2017-07-02T02:39:23.366Z,17.30
2017-07-02T02:41:52.257Z,17.55
2017-07-02T02:44:21.154Z,18.45
2017-07-02T02:46:50.046Z,17.02
2017-07-02T02:49:18.940Z,17.90
2017-07-02T02:51:47.834Z,18.65
2017-07-02T02:54:16.723Z,18.25
2017-07-02T02:56:45.618Z,17.92
2017-07-02T02:59:14.513Z,16.60
2017-07-02T03:01:43.409Z,19.23
2017-07-02T03:04:12.313Z,16.67
2017-07-02T03:06:41.222Z,16.58
2017-07-02T03:09:10.148Z,17.85
2017-07-02T03:11:39.056Z,17.15
2017-07-02T03:14:07.954Z,16.05
2017-07-02T03:16:36.852Z,18.42
2017-07-02T03:19:05.749Z,16.37
2017-07-02T03:21:34.650Z,16.60
2017-07-02T03:24:03.556Z,16.12
2017-07-02T03:26:32.457Z,15.20
2017-07-02T03:29:01.357Z,15.10
2017-07-02T03:31:30.257Z,15.50
2017-07-02T03:33:59.937Z,13.05
2017-07-02T03:36:28.831Z,12.82
2017-07-02T03:38:57.733Z,12.60
2017-07-02T03:41:26.627Z,12.95
2017-07-02T03:43:55.512Z,11.45
2017-07-02T03:46:24.434Z,10.90
2017-07-02T03:48:54.088Z,11.80
2017-07-02T03:51:22.980Z,10.45
2017-07-02T03:53:51.874Z,10.52
2017-07-02T03:56:20.773Z,11.30
2017-07-02T03:58:49.661Z,9.50
2017-07-02T04:01:18.556Z,11.90
2017-07-02T04:03:47.432Z,11.30
2017-07-02T04:06:16.329Z,9.88
2017-07-02T04:08:45.229Z,9.27
2017-07-02T04:11:14.129Z,11.20
2017-07-02T04:13:43.045Z,10.85
2017-07-02T04:16:11.938Z,11.07
2017-07-02T04:18:40.837Z,11.12
2017-07-02T04:21:09.737Z,12.63
2017-07-02T04:23:38.635Z,11.05
2017-07-02T04:26:08.293Z,11.82
2017-07-02T04:28:37.199Z,13.70
2017-07-02T04:31:06.103Z,14.45
2017-07-02T04:33:35.013Z,12.35
2017-07-02T04:36:03.918Z,12.77
2017-07-02T04:38:33.588Z,15.10
2017-07-02T04:41:02.480Z,14.13
2017-07-02T04:43:31.425Z,15.40
2017-07-02T04:46:00.339Z,15.05
2017-07-02T04:48:29.233Z,14.15
2017-07-02T04:50:58.130Z,13.73
2017-07-02T04:53:27.037Z,13.70
2017-07-02T04:55:55.929Z,14.25
2017-07-02T04:58:24.812Z,14.43
2017-07-02T05:00:53.718Z,13.75
2017-07-02T05:03:22.612Z,13.75
2017-07-02T05:05:51.499Z,14.48
2017-07-02T05:08:20.392Z,15.85
2017-07-02T05:10:49.293Z,14.07
2017-07-02T05:13:18.185Z,15.13
2017-07-02T05:15:47.086Z,15.40
2017-07-02T05:18:18.191Z,15.18
2017-07-02T05:20:47.097Z,15.43
2017-07-02T05:23:15.997Z,15.65
2017-07-02T05:25:44.901Z,16.75
2017-07-02T05:28:13.785Z,15.00
2017-07-02T05:30:42.682Z,16.50
2017-07-02T05:33:11.585Z,16.45
2017-07-02T05:35:41.204Z,19.87
2017-07-02T05:38:10.830Z,19.60
2017-07-02T05:40:39.722Z,20.02
2017-07-02T05:43:08.616Z,20.00
2017-07-02T05:45:37.479Z,20.42
2017-07-02T05:48:06.382Z,20.60
2017-07-02T05:50:36.043Z,20.60
2017-07-02T05:53:04.940Z,21.15
2017-07-02T05:55:33.837Z,21.27
2017-07-02T05:58:02.694Z,23.60
2017-07-02T06:00:31.244Z,21.48
2017-07-02T06:03:00.916Z,20.65
2017-07-02T06:05:29.811Z,21.48
2017-07-02T06:07:58.708Z,21.12
2017-07-02T06:10:27.608Z,20.58
2017-07-02T06:12:56.501Z,21.50
2017-07-02T06:15:25.043Z,20.95
2017-07-02T06:17:53.932Z,20.50
2017-07-02T06:20:22.834Z,18.48
2017-07-02T06:22:51.735Z,20.02
2017-07-02T06:25:20.640Z,20.05
2017-07-02T06:27:49.546Z,20.00
2017-07-02T06:30:18.402Z,15.70
2017-07-02T06:32:47.284Z,13.80
2017-07-02T06:35:15.842Z,13.90
2017-07-02T06:37:44.731Z,12.55
2017-07-02T06:40:14.395Z,13.43
2017-07-02T06:42:43.294Z,12.80
2017-07-02T06:45:12.183Z,13.20
2017-07-02T06:47:41.089Z,11.10
2017-07-02T06:50:09.990Z,11.60
2017-07-02T06:52:39.665Z,11.75
2017-07-02T06:55:08.574Z,11.02
2017-07-02T06:57:37.482Z,10.07
2017-07-02T07:00:06.385Z,11.45
2017-07-02T07:02:36.046Z,9.38
2017-07-02T07:05:04.896Z,8.88
2017-07-02T07:07:34.565Z,9.55
2017-07-02T07:10:03.461Z,8.80
2017-07-02T07:12:32.347Z,8.43
2017-07-02T07:15:01.242Z,9.45
2017-07-02T07:17:30.138Z,9.18
2017-07-02T07:19:59.025Z,9.23
2017-07-02T07:22:27.921Z,9.95
2017-07-02T07:24:56.808Z,9.20
2017-07-02T07:27:25.692Z,9.10
2017-07-02T07:29:54.587Z,10.70
2017-07-02T07:32:23.488Z,10.25
2017-07-02T07:34:52.369Z,8.60
2017-07-02T07:37:21.277Z,10.57
2017-07-02T07:39:50.176Z,8.48
2017-07-02T07:42:19.055Z,9.00
2017-07-02T07:44:47.959Z,10.07
2017-07-02T07:47:17.642Z,10.38
2017-07-02T07:49:46.544Z,10.75
2017-07-02T07:52:15.440Z,10.40
2017-07-02T07:54:44.152Z,8.93
2017-07-02T07:57:13.623Z,10.32
2017-07-02T07:59:42.518Z,9.48
2017-07-02T08:02:11.416Z,9.52
2017-07-02T08:04:40.322Z,10.85
2017-07-02T08:07:09.220Z,10.20
2017-07-02T08:09:38.117Z,10.63
2017-07-02T08:12:07.782Z,12.10
2017-07-02T08:14:36.689Z,10.60
2017-07-02T08:17:05.581Z,9.75
2017-07-02T08:19:34.485Z,12.10
2017-07-02T08:22:03.377Z,11.50
2017-07-02T08:24:32.269Z,11.38
2017-07-02T08:27:01.160Z,10.10
2017-07-02T08:29:30.043Z,9.13
2017-07-02T08:31:58.949Z,10.20
2017-07-02T08:34:28.608Z,10.65
2017-07-02T08:36:57.319Z,8.55
2017-07-02T08:39:26.209Z,9.60
2017-07-02T08:41:55.101Z,9.27
2017-07-02T08:44:24.005Z,9.63
2017-07-02T08:46:52.901Z,8.65
2017-07-02T08:49:21.795Z,9.80
2017-07-02T08:51:50.692Z,8.57
2017-07-02T08:54:19.590Z,9.05
2017-07-02T08:56:48.471Z,8.90
2017-07-02T08:59:17.355Z,9.32
2017-07-02T09:01:46.295Z,10.30
2017-07-02T09:04:15.869Z,10.15
2017-07-02T09:06:44.764Z,10.27
2017-07-02T09:09:14.424Z,10.02
2017-07-02T09:11:43.325Z,10.25
2017-07-02T09:14:12.224Z,10.60
2017-07-02T09:16:41.118Z,9.95
2017-07-02T09:19:09.999Z,9.90
2017-07-02T09:21:38.883Z,9.50
2017-07-02T09:24:07.770Z,9.85
2017-07-02T09:26:36.689Z,10.30
2017-07-02T09:29:05.590Z,9.30
2017-07-02T09:31:34.521Z,9.18
2017-07-02T09:34:03.399Z,8.82
2017-07-02T09:36:33.056Z,8.05
2017-07-02T09:39:01.954Z,8.63
2017-07-02T09:41:30.839Z,8.52
2017-07-02T09:43:59.688Z,8.00
2017-07-02T09:46:28.572Z,8.10
2017-07-02T09:48:58.238Z,7.65
2017-07-02T09:51:27.129Z,7.87
2017-07-02T09:53:56.025Z,7.70
2017-07-02T09:56:24.926Z,7.15
2017-07-02T09:58:53.819Z,6.18
2017-07-02T10:01:22.718Z,6.22
2017-07-02T10:03:51.609Z,5.95
2017-07-02T10:06:20.491Z,5.95
2017-07-02T10:08:50.157Z,5.00
2017-07-02T10:11:19.815Z,5.65
2017-07-02T10:13:48.700Z,5.70
2017-07-02T10:16:17.636Z,5.22
2017-07-02T10:18:46.507Z,5.57
2017-07-02T10:21:15.387Z,5.28
2017-07-02T10:23:44.277Z,5.62
2017-07-02T10:26:13.165Z,5.22
2017-07-02T10:28:42.024Z,6.37
2017-07-02T10:31:10.911Z,6.05
2017-07-02T10:33:39.618Z,6.10
2017-07-02T10:36:08.500Z,6.50
2017-07-02T10:38:37.389Z,7.43
2017-07-02T10:41:06.239Z,6.10
2017-07-02T10:43:35.133Z,5.82
2017-07-02T10:46:04.004Z,5.85
2017-07-02T10:48:32.947Z,5.10
2017-07-02T10:51:01.839Z,4.43
2017-07-02T10:53:30.717Z,4.65
2017-07-02T10:56:00.373Z,4.68
2017-07-02T10:58:29.245Z,5.00
2017-07-02T11:00:58.127Z,5.50
2017-07-02T11:03:26.998Z,5.20
2017-07-02T11:05:56.666Z,5.80
2017-07-02T11:08:25.551Z,4.93
2017-07-02T11:10:54.427Z,4.85
2017-07-02T11:13:23.300Z,5.28
2017-07-02T11:15:52.192Z,4.90
2017-07-02T11:18:21.089Z,6.10
2017-07-02T11:20:49.979Z,4.95
2017-07-02T11:23:18.820Z,5.85
2017-07-02T11:25:47.701Z,3.55
2017-07-02T11:28:16.598Z,4.32
2017-07-02T11:30:45.489Z,4.07
2017-07-02T11:33:14.373Z,4.82
2017-07-02T11:35:43.262Z,4.90
2017-07-02T11:38:12.156Z,5.90
2017-07-02T11:40:41.050Z,5.80
2017-07-02T11:43:09.955Z,6.00
2017-07-02T11:45:38.823Z,5.05
2017-07-02T11:48:07.727Z,6.00
2017-07-02T11:50:36.617Z,5.00
2017-07-02T11:53:05.491Z,5.80
2017-07-02T11:55:34.376Z,5.25
2017-07-02T11:58:03.259Z,5.85
2017-07-02T12:00:32.140Z,4.97
2017-07-02T12:03:00.984Z,4.65
2017-07-02T12:05:29.861Z,4.20
2017-07-02T12:07:58.754Z,3.90
2017-07-02T12:10:27.646Z,3.87
2017-07-02T12:12:56.531Z,4.22
2017-07-02T12:15:25.425Z,4.78
2017-07-02T12:17:53.620Z,4.32
2017-07-02T12:20:22.159Z,4.25
2017-07-02T12:22:50.680Z,4.25
2017-07-02T12:25:18.860Z,3.70
2017-07-02T12:27:47.384Z,3.72
2017-07-02T12:30:16.280Z,3.90
2017-07-02T12:32:44.465Z,3.62
2017-07-02T12:35:12.644Z,3.87
2017-07-02T12:37:41.526Z,3.28
2017-07-02T12:40:10.047Z,3.65
2017-07-02T12:42:38.575Z,3.85
2017-07-02T12:45:07.521Z,3.75
2017-07-02T12:47:36.413Z,3.62
2017-07-02T12:50:04.953Z,3.85
2017-07-02T12:52:33.838Z,3.30
2017-07-02T12:55:02.740Z,4.15
2017-07-02T12:57:31.611Z,4.30
2017-07-02T13:00:01.255Z,4.32
2017-07-02T13:02:30.142Z,4.68
2017-07-02T13:04:58.995Z,4.28
2017-07-02T13:07:28.642Z,4.90
2017-07-02T13:09:57.534Z,5.30
2017-07-02T13:12:26.419Z,4.75
2017-07-02T13:14:55.307Z,4.72
2017-07-02T13:17:24.189Z,4.10
2017-07-02T13:19:53.071Z,4.57
2017-07-02T13:22:22.712Z,4.47
2017-07-02T13:24:51.586Z,4.10
2017-07-02T13:27:20.452Z,3.25
2017-07-02T13:29:50.074Z,3.35
2017-07-02T13:32:19.712Z,3.62
2017-07-02T13:34:48.593Z,4.10
2017-07-02T13:37:17.480Z,3.47
2017-07-02T13:39:46.327Z,3.20
2017-07-02T13:42:15.217Z,3.20
2017-07-02T13:44:44.101Z,3.65
2017-07-02T13:47:12.983Z,2.83
2017-07-02T13:49:41.877Z,3.08
2017-07-02T13:52:10.768Z,2.95
2017-07-02T13:54:39.661Z,3.22
2017-07-02T13:57:08.548Z,3.22
2017-07-02T13:59:37.428Z,3.20
2017-07-02T14:02:06.317Z,3.47
2017-07-02T14:04:35.196Z,3.37
2017-07-02T14:07:04.091Z,3.22
2017-07-02T14:09:32.971Z,3.00
2017-07-02T14:12:01.839Z,3.75
2017-07-02T14:14:31.480Z,3.58
2017-07-02T14:17:00.353Z,3.15
2017-07-02T14:19:29.232Z,2.95
2017-07-02T14:21:58.868Z,2.90
2017-07-02T14:24:27.745Z,3.62
2017-07-02T14:26:56.626Z,2.65
2017-07-02T14:29:26.265Z,3.17
2017-07-02T14:31:55.103Z,3.03
2017-07-02T14:34:23.994Z,2.80
2017-07-02T14:36:52.865Z,3.40
2017-07-02T14:39:21.718Z,2.78
2017-07-02T14:41:50.601Z,2.70
2017-07-02T14:44:19.505Z,2.70
2017-07-02T14:46:48.398Z,2.80
2017-07-02T14:49:17.278Z,3.05
2017-07-02T14:51:46.935Z,3.35
2017-07-02T14:54:15.793Z,2.87
2017-07-02T14:56:44.722Z,3.28
2017-07-02T14:59:13.615Z,3.47
2017-07-02T15:01:42.496Z,3.50
2017-07-02T15:04:11.389Z,3.87
2017-07-02T15:06:40.289Z,2.92
2017-07-02T15:09:09.172Z,2.90
2017-07-02T15:11:38.063Z,2.50
2017-07-02T15:14:06.957Z,3.60
2017-07-02T15:16:35.848Z,2.85
2017-07-02T15:19:04.728Z,3.45
2017-07-02T15:21:33.610Z,3.90
2017-07-02T15:24:02.486Z,3.67
2017-07-02T15:26:31.330Z,3.62
2017-07-02T15:29:00.209Z,3.17
2017-07-02T15:31:29.092Z,3.20
2017-07-02T15:33:57.997Z,4.03
2017-07-02T15:36:26.886Z,2.70
2017-07-02T15:38:55.778Z,3.15
2017-07-02T15:41:24.672Z,3.83
2017-07-02T15:43:53.558Z,3.40
2017-07-02T15:46:22.446Z,3.33
2017-07-02T15:48:51.328Z,3.60
2017-07-02T15:51:20.209Z,3.22
2017-07-02T15:53:49.087Z,3.33
2017-07-02T15:56:17.973Z,3.30
2017-07-02T15:58:46.870Z,3.30
2017-07-02T16:01:15.754Z,3.22
2017-07-02T16:03:44.647Z,3.22
2017-07-02T16:06:13.504Z,3.05
2017-07-02T16:08:42.379Z,3.35
2017-07-02T16:11:11.257Z,3.95
2017-07-02T16:13:40.155Z,4.18
2017-07-02T16:16:09.044Z,3.72
2017-07-02T16:18:37.985Z,3.47
2017-07-02T16:21:07.647Z,3.70
2017-07-02T16:23:36.572Z,3.95
2017-07-02T16:26:06.233Z,3.85
2017-07-02T16:28:35.119Z,3.55
2017-07-02T16:31:04.011Z,4.18
2017-07-02T16:33:32.888Z,3.70
2017-07-02T16:36:01.781Z,3.40
2017-07-02T16:38:30.669Z,4.45
2017-07-02T16:40:59.565Z,4.00
2017-07-02T16:43:28.440Z,3.35
2017-07-02T16:45:57.330Z,3.65
2017-07-02T16:48:27.012Z,4.60
2017-07-02T16:50:55.853Z,4.87
2017-07-02T16:53:24.719Z,4.05
2017-07-02T16:55:54.382Z,5.05
2017-07-02T16:58:23.278Z,4.65
2017-07-02T17:00:52.163Z,4.20
2017-07-02T17:03:21.056Z,4.45
2017-07-02T17:05:49.950Z,4.32
2017-07-02T17:08:18.810Z,4.55
2017-07-02T17:10:47.690Z,4.10
2017-07-02T17:13:16.563Z,4.40
2017-07-02T17:15:45.444Z,3.83
2017-07-02T17:18:14.133Z,4.30
2017-07-02T17:20:43.777Z,4.05
2017-07-02T17:23:12.657Z,4.20
2017-07-02T17:25:41.558Z,3.83
2017-07-02T17:28:10.445Z,4.65
2017-07-02T17:30:39.324Z,3.45
2017-07-02T17:33:08.966Z,4.00
2017-07-02T17:35:37.850Z,4.25
2017-07-02T17:38:06.745Z,3.83
2017-07-02T17:40:35.621Z,4.57
2017-07-02T17:43:04.505Z,4.50
2017-07-02T17:45:34.146Z,4.05
2017-07-02T17:48:03.018Z,4.80
2017-07-02T17:50:31.897Z,4.97
2017-07-02T17:53:00.753Z,4.25
2017-07-02T17:55:29.631Z,4.03
2017-07-02T17:57:58.509Z,4.25
2017-07-02T18:00:27.381Z,4.03
2017-07-02T18:02:56.257Z,4.30
2017-07-02T18:05:25.136Z,4.78
2017-07-02T18:07:54.801Z,4.53
2017-07-02T18:10:23.700Z,4.55
2017-07-02T18:12:52.579Z,4.75
2017-07-02T18:15:21.432Z,4.75
2017-07-02T18:17:50.116Z,4.07
2017-07-02T18:20:19.001Z,4.80
2017-07-02T18:22:48.650Z,4.43
2017-07-02T18:25:17.529Z,4.60
2017-07-02T18:27:46.396Z,4.60
2017-07-02T18:30:16.057Z,4.90
2017-07-02T18:32:44.946Z,4.68
2017-07-02T18:35:13.827Z,5.55
2017-07-02T18:37:42.726Z,6.03
2017-07-02T18:40:11.610Z,5.40
2017-07-02T18:42:40.489Z,6.22
2017-07-02T18:45:09.378Z,6.53
2017-07-02T18:47:38.261Z,6.65
2017-07-02T18:50:07.155Z,6.50
2017-07-02T18:52:36.051Z,6.10
2017-07-02T18:55:04.944Z,8.00
2017-07-02T18:57:33.837Z,7.45
2017-07-02T19:00:02.733Z,6.75
2017-07-02T19:02:31.612Z,7.70
2017-07-02T19:05:00.517Z,6.90
2017-07-02T19:07:29.418Z,6.68
2017-07-02T19:09:58.292Z,6.60
2017-07-02T19:12:27.172Z,7.07
2017-07-02T19:14:56.017Z,6.90
2017-07-02T19:17:24.918Z,8.82
2017-07-02T19:19:53.766Z,6.90
2017-07-02T19:22:22.648Z,7.93
2017-07-02T19:24:51.532Z,7.85
2017-07-02T19:27:20.426Z,6.65
2017-07-02T19:29:49.300Z,7.00
2017-07-02T19:32:18.960Z,7.70
2017-07-02T19:34:47.840Z,7.70
2017-07-02T19:37:16.736Z,7.28
2017-07-02T19:39:45.641Z,7.22
2017-07-02T19:44:52.539Z,7.00
2017-07-02T19:47:21.427Z,6.80
2017-07-02T19:49:50.322Z,5.80
2017-07-02T19:52:20.172Z,6.95
2017-07-02T19:54:49.055Z,5.90
2017-07-02T19:57:17.944Z,6.60
2017-07-02T19:59:47.605Z,7.05
2017-07-02T20:02:16.582Z,6.07
2017-07-02T20:04:45.468Z,6.60
2017-07-02T20:07:14.351Z,7.53
2017-07-02T20:09:43.245Z,5.82
2017-07-02T20:12:12.903Z,6.00
2017-07-02T20:14:41.780Z,6.85
2017-07-02T20:17:10.678Z,7.53
2017-07-02T20:19:39.582Z,7.45
2017-07-02T20:22:08.459Z,5.68
2017-07-02T20:24:37.342Z,6.35
2017-07-02T20:27:06.224Z,6.43
2017-07-02T20:29:35.107Z,6.57
2017-07-02T20:32:04.012Z,7.35
2017-07-02T20:34:32.919Z,6.10
2017-07-02T20:37:01.803Z,6.10
2017-07-02T20:39:30.693Z,5.53
2017-07-02T20:41:59.572Z,5.43
2017-07-02T20:44:28.451Z,5.87
2017-07-02T20:46:57.344Z,4.90
2017-07-02T20:49:26.229Z,5.07
2017-07-02T20:51:55.882Z,5.65
2017-07-02T20:54:24.773Z,5.60
2017-07-02T20:56:53.664Z,5.25
2017-07-02T20:59:22.547Z,5.20
2017-07-02T21:01:51.236Z,6.03
2017-07-02T21:04:20.121Z,6.40
2017-07-02T21:06:48.999Z,6.05
2017-07-02T21:09:17.886Z,5.95
2017-07-02T21:11:46.763Z,5.95
2017-07-02T21:14:16.421Z,5.85
2017-07-02T21:16:45.339Z,6.62
2017-07-02T21:19:14.222Z,6.40
2017-07-02T21:21:43.075Z,7.05
2017-07-02T21:24:11.952Z,7.50
2017-07-02T21:26:41.256Z,8.25
2017-07-02T21:29:10.178Z,7.25
2017-07-02T21:31:39.076Z,8.90
2017-07-02T21:34:08.775Z,8.02
2017-07-02T21:36:37.660Z,7.55
2017-07-02T21:39:06.617Z,7.43
2017-07-02T21:41:35.509Z,8.45
2017-07-02T21:44:04.393Z,8.05
2017-07-02T21:46:34.729Z,8.93
2017-07-02T21:49:03.618Z,7.70
2017-07-02T21:51:32.506Z,8.10
2017-07-02T21:54:01.409Z,8.43
2017-07-02T21:56:30.281Z,7.62
2017-07-02T21:58:59.936Z,8.25
2017-07-02T22:01:28.812Z,8.52
2017-07-02T22:03:57.708Z,7.30
2017-07-02T22:06:26.581Z,8.85
2017-07-02T22:08:56.229Z,7.03
2017-07-02T22:11:25.119Z,7.85
2017-07-02T22:13:53.993Z,8.05
2017-07-02T22:16:22.872Z,7.62
2017-07-02T22:18:51.774Z,8.27
2017-07-02T22:21:20.662Z,7.07
2017-07-02T22:23:49.545Z,8.77
2017-07-02T22:26:18.446Z,8.05
2017-07-02T22:28:47.332Z,8.02
2017-07-02T22:31:16.217Z,7.95
2017-07-02T22:33:45.090Z,7.72
2017-07-02T22:36:14.751Z,7.80
2017-07-02T22:38:43.635Z,7.70
2017-07-02T22:41:12.490Z,7.07
2017-07-02T22:43:41.377Z,6.30
2017-07-02T22:46:10.268Z,7.00
2017-07-02T22:48:39.934Z,8.35
2017-07-02T22:51:08.827Z,7.32
2017-07-02T22:53:37.726Z,7.85
2017-07-02T22:56:13.084Z,7.15
2017-07-02T22:58:41.942Z,8.05
2017-07-02T23:01:10.907Z,6.32
2017-07-02T23:03:39.787Z,6.55
2017-07-02T23:06:08.684Z,7.82
2017-07-02T23:08:37.575Z,7.22
2017-07-02T23:11:06.470Z,7.97
2017-07-02T23:13:35.359Z,7.62
2017-07-02T23:16:05.011Z,6.75
2017-07-02T23:18:33.858Z,6.10
2017-07-02T23:21:02.732Z,6.95
2017-07-02T23:23:31.614Z,6.70
2017-07-02T23:26:00.491Z,6.00
2017-07-02T23:28:29.387Z,6.97
2017-07-02T23:30:58.258Z,6.22
2017-07-02T23:33:27.132Z,6.53
2017-07-02T23:35:56.021Z,6.22
2017-07-02T23:38:24.910Z,5.82
2017-07-02T23:40:53.789Z,6.70
2017-07-02T23:43:22.676Z,6.00
2017-07-02T23:45:51.556Z,5.70
2017-07-02T23:48:20.442Z,6.18
2017-07-02T23:50:50.089Z,5.57
2017-07-02T23:53:18.975Z,7.07
2017-07-02T23:55:47.856Z,5.80
2017-07-02T23:58:16.742Z,5.25
